Time;durP1;ratioP1;P1;durP2;ratioP2;P2;SDS_P1;SDS_P2;PMS_P1;PMS_P2;Temp;Humidity;BMP_temperature;BMP_pressure;BME280_temperature;BME280_humidity;BME280_pressure;Samples;Min_cycle;Max_cycle;Signal;HPM_P1;HPM_P2
2024/02/29 00:01:24;;;;;;;10.82;2.00;;;;;;;0.75;64.94;100249.13;5028418;28;20068;-53
2024/02/29 00:03:50;;;;;;;6.05;2.53;;;;;;;0.60;65.14;100223.31;5024997;28;20037;-57
2024/02/29 00:06:15;;;;;;;8.27;2.22;;;;;;;0.79;65.18;100244.91;5043430;28;20559;-48
2024/02/29 00:08:41;;;;;;;9.75;2.67;;;;;;;0.79;64.87;100250.00;5027560;28;20044;-52
2024/02/29 00:11:07;;;;;;;9.45;2.20;;;;;;;0.80;64.79;100249.19;5043408;28;20056;-52
2024/02/29 00:13:33;;;;;;;6.15;2.60;;;;;;;0.80;64.86;100255.16;5027956;28;20882;-52
2024/02/29 00:15:59;;;;;;;12.52;3.75;;;;;;;0.60;64.74;100205.41;5043721;28;20240;-50
2024/02/29 00:18:25;;;;;;;8.80;2.63;;;;;;;0.81;64.57;100248.34;5059664;28;20052;-53
2024/02/29 00:20:53;;;;;;;6.78;2.08;;;;;;;0.83;64.79;100252.66;5028044;28;20037;-57
2024/02/29 00:23:19;;;;;;;7.95;2.42;;;;;;;0.79;64.83;100244.91;5027056;28;20037;-50
2024/02/29 00:25:45;;;;;;;9.13;3.33;;;;;;;0.62;64.60;100208.00;5025923;28;20076;-50
2024/02/29 00:28:11;;;;;;;6.13;2.60;;;;;;;0.81;64.55;100244.09;5040732;28;20124;-51
2024/02/29 00:30:37;;;;;;;5.85;2.28;;;;;;;0.82;64.44;100242.41;5024971;28;20508;-55
2024/02/29 00:33:04;;;;;;;5.03;2.20;;;;;;;0.81;64.84;100249.22;5025989;28;20048;-50
2024/02/29 00:35:31;;;;;;;8.20;1.92;;;;;;;0.77;64.47;100247.47;5025950;28;20056;-52
2024/02/29 00:37:57;;;;;;;7.70;2.42;;;;;;;0.77;64.64;100238.91;5027320;28;20034;-49
2024/02/29 00:40:23;;;;;;;11.55;2.60;;;;;;;0.70;64.86;100230.28;5027491;28;20052;-52
2024/02/29 00:42:50;;;;;;;10.93;2.80;;;;;;;0.75;64.52;100240.59;5034409;28;20060;-53
2024/02/29 00:45:15;;;;;;;4.05;1.60;;;;;;;0.71;64.93;100228.59;5019095;28;20042;-51
2024/02/29 00:47:42;;;;;;;7.63;3.08;;;;;;;0.74;64.93;100233.75;5018889;28;20044;-49
2024/02/29 00:50:10;;;;;;;7.47;2.30;;;;;;;0.74;64.87;100232.03;5010056;28;20111;-50
2024/02/29 00:52:37;;;;;;;7.45;2.22;;;;;;;0.71;64.87;100234.56;5027248;28;20053;-52
2024/02/29 00:55:04;;;;;;;5.97;2.15;;;;;;;0.72;64.79;100230.31;5026665;28;20064;-49
2024/02/29 00:57:30;;;;;;;10.02;2.78;;;;;;;0.71;64.96;100232.00;5042523;28;20045;-50
2024/02/29 00:59:56;;;;;;;6.97;2.67;;;;;;;0.70;64.81;100224.31;5058141;28;20045;-50
2024/02/29 01:02:22;;;;;;;5.28;2.33;;;;;;;0.57;64.81;100190.03;5027301;28;20052;-50
2024/02/29 01:04:48;;;;;;;5.90;2.63;;;;;;;0.70;64.85;100211.50;5026547;28;20086;-50
2024/02/29 01:07:14;;;;;;;9.32;2.47;;;;;;;0.78;64.55;100217.63;5025632;28;20073;-51
2024/02/29 01:09:39;;;;;;;7.78;2.60;;;;;;;0.79;64.70;100217.59;5026975;28;20037;-50
2024/02/29 01:12:06;;;;;;;11.80;2.97;;;;;;;0.77;64.52;100214.19;5042374;28;20123;-54
2024/02/29 01:14:32;;;;;;;5.72;2.03;;;;;;;0.65;64.61;100191.00;5025663;28;20053;-49
2024/02/29 01:16:58;;;;;;;4.65;1.88;;;;;;;0.79;64.43;100209.06;5026079;28;20033;-52
2024/02/29 01:19:23;;;;;;;8.02;2.58;;;;;;;0.77;64.06;100214.19;5025460;28;20505;-50
2024/02/29 01:21:49;;;;;;;6.68;2.53;;;;;;;0.71;64.53;100201.31;5027308;28;20099;-50
2024/02/29 01:24:15;;;;;;;5.43;2.38;;;;;;;0.73;64.43;100204.72;5027459;28;20092;-53
2024/02/29 01:26:41;;;;;;;6.38;2.78;;;;;;;0.71;64.33;100214.09;5026903;28;20103;-52
2024/02/29 01:29:07;;;;;;;6.53;2.60;;;;;;;0.65;64.43;100205.47;5026138;28;20125;-51
2024/02/29 01:31:33;;;;;;;8.82;2.70;;;;;;;0.70;64.14;100212.38;5008670;28;20140;-48
2024/02/29 01:34:00;;;;;;;6.97;2.83;;;;;;;0.65;64.21;100211.47;5057809;28;20033;-49
2024/02/29 01:36:25;;;;;;;4.78;1.90;;;;;;;0.63;64.87;100204.63;5026141;28;20175;-51
2024/02/29 01:38:51;;;;;;;8.70;2.50;;;;;;;0.62;64.70;100205.44;5025865;28;20052;-52
2024/02/29 01:41:21;;;;;;;9.80;2.85;;;;;;;0.61;64.76;100202.03;5025293;28;20041;-52
2024/02/29 01:43:52;;;;;;;11.48;3.30;;;;;;;0.63;64.63;100205.44;5057924;28;20790;-49
2024/02/29 01:46:18;;;;;;;11.77;2.80;;;;;;;0.59;64.83;100203.69;5026052;28;20509;-50
2024/02/29 01:48:47;;;;;;;5.38;2.25;;;;;;;0.60;64.86;100199.44;5026027;28;20424;-48
2024/02/29 01:51:14;;;;;;;8.82;2.90;;;;;;;0.58;64.60;100191.72;5009223;28;20029;-49
2024/02/29 01:53:40;;;;;;;9.65;3.25;;;;;;;0.21;64.49;100136.66;5025502;28;20049;-50
2024/02/29 01:56:06;;;;;;;5.63;2.70;;;;;;;0.49;64.54;100167.72;5025987;28;20045;-58
2024/02/29 01:58:34;;;;;;;5.05;2.17;;;;;;;0.64;64.20;100199.50;5040766;28;20091;-50
2024/02/29 02:01:00;;;;;;;3.97;1.55;;;;;;;0.66;64.51;100194.41;5008457;28;20033;-52
2024/02/29 02:03:26;;;;;;;4.88;2.20;;;;;;;0.65;63.95;100185.00;5026255;28;20049;-51
2024/02/29 02:05:52;;;;;;;6.68;1.88;;;;;;;0.61;64.03;100183.25;5007864;28;20079;-51
2024/02/29 02:08:18;;;;;;;8.35;2.97;;;;;;;0.48;64.09;100145.53;5041265;28;20513;-51
2024/02/29 02:10:44;;;;;;;10.57;2.42;;;;;;;0.66;64.29;100174.81;5024128;28;20037;-48
2024/02/29 02:13:10;;;;;;;6.38;2.17;;;;;;;0.68;63.75;100183.34;5057834;28;20041;-51
2024/02/29 02:15:36;;;;;;;8.63;3.10;;;;;;;0.68;63.89;100172.28;5024686;28;20072;-50
2024/02/29 02:18:03;;;;;;;10.43;2.47;;;;;;;0.48;63.92;100151.50;5025697;28;20505;-51
2024/02/29 02:20:29;;;;;;;3.42;1.42;;;;;;;0.69;64.06;100185.06;5004701;28;20136;-53
2024/02/29 02:22:55;;;;;;;9.05;2.58;;;;;;;0.66;64.31;100179.06;5037945;28;20053;-49
2024/02/29 02:25:21;;;;;;;9.68;3.08;;;;;;;0.67;64.08;100181.66;5004415;28;20041;-53
2024/02/29 02:27:47;;;;;;;7.30;3.00;;;;;;;0.67;64.14;100183.34;5001211;28;20044;-53
2024/02/29 02:30:14;;;;;;;5.93;2.65;;;;;;;0.65;63.81;100188.44;5027982;28;20057;-50
2024/02/29 02:32:40;;;;;;;8.35;2.53;;;;;;;0.62;63.98;100183.28;5061412;28;20071;-50
2024/02/29 02:35:06;;;;;;;6.45;2.22;;;;;;;0.62;63.93;100183.28;5009150;28;20046;-52
2024/02/29 02:37:33;;;;;;;7.97;3.03;;;;;;;0.61;64.16;100179.00;5016831;28;20041;-49
2024/02/29 02:39:59;;;;;;;16.13;3.28;;;;;;;0.57;64.00;100168.72;5028416;28;20148;-52
2024/02/29 02:42:25;;;;;;;7.72;2.88;;;;;;;0.65;64.38;100179.88;5023724;28;20140;-53
2024/02/29 02:44:51;;;;;;;7.70;3.00;;;;;;;0.67;63.85;100178.22;5010261;28;20120;-48
2024/02/29 02:47:17;;;;;;;7.13;2.92;;;;;;;0.52;64.11;100165.22;5011886;28;20038;-51
2024/02/29 02:49:43;;;;;;;5.90;2.17;;;;;;;0.68;64.12;100179.94;5028155;28;20531;-51
2024/02/29 02:52:09;;;;;;;6.55;2.85;;;;;;;0.70;63.96;100181.66;5029642;28;20041;-54
2024/02/29 02:54:35;;;;;;;9.43;2.90;;;;;;;0.57;63.98;100148.25;5061352;28;20045;-49
2024/02/29 02:57:01;;;;;;;8.52;2.92;;;;;;;0.78;63.95;100174.09;5029885;28;20045;-51
2024/02/29 02:59:28;;;;;;;7.45;2.95;;;;;;;0.80;63.78;100174.97;5011765;28;20541;-50
2024/02/29 03:01:53;;;;;;;6.07;2.67;;;;;;;0.83;63.89;100170.78;5029284;28;20045;-50
2024/02/29 03:04:19;;;;;;;9.02;3.30;;;;;;;0.92;63.48;100175.13;5029566;28;20045;-54
2024/02/29 03:06:45;;;;;;;5.72;2.25;;;;;;;0.92;63.61;100177.69;5028651;28;20029;-50
2024/02/29 03:09:11;;;;;;;4.78;2.17;;;;;;;0.82;63.31;100165.63;5027566;28;20033;-50
2024/02/29 03:11:37;;;;;;;7.55;2.70;;;;;;;0.73;63.64;100157.84;5043750;28;20037;-52
2024/02/29 03:14:04;;;;;;;7.82;3.28;;;;;;;0.92;63.60;100181.94;5027821;28;20056;-52
2024/02/29 03:16:31;;;;;;;6.18;2.55;;;;;;;0.91;63.38;100177.66;5061051;28;20580;-49
2024/02/29 03:18:57;;;;;;;3.22;2.28;;;;;;;0.88;63.58;100175.06;5060404;28;20076;-52
2024/02/29 03:21:23;;;;;;;10.45;3.42;;;;;;;0.87;63.44;100170.78;5028787;28;20140;-50
2024/02/29 03:23:49;;;;;;;6.25;2.33;;;;;;;0.88;63.32;100177.63;5027632;28;20050;-51
2024/02/29 03:26:15;;;;;;;6.10;2.83;;;;;;;0.89;63.80;100171.69;5029753;28;20503;-52
2024/02/29 03:28:42;;;;;;;6.63;2.90;;;;;;;0.89;63.58;100169.13;5029375;28;20580;-52
2024/02/29 03:31:13;;;;;;;8.45;3.42;;;;;;;0.91;63.39;100169.97;5027685;28;20048;-52
2024/02/29 03:33:40;;;;;;;8.50;2.80;;;;;;;0.72;63.54;100130.53;5007642;28;20391;-51
2024/02/29 03:36:07;;;;;;;5.03;2.03;;;;;;;0.94;63.19;100164.91;5016845;28;20903;-52
2024/02/29 03:38:35;;;;;;;7.28;1.95;;;;;;;0.72;63.51;100133.09;5027382;28;20049;-52
2024/02/29 03:41:01;;;;;;;6.78;3.40;;;;;;;0.94;63.48;100152.97;5026395;28;20045;-51
2024/02/29 03:43:27;;;;;;;7.55;2.78;;;;;;;0.54;63.35;100079.13;5026848;28;20050;-51
2024/02/29 03:45:54;;;;;;;4.88;2.17;;;;;;;0.81;63.24;100117.84;5027382;28;20037;-51
2024/02/29 03:48:19;;;;;;;10.27;3.25;;;;;;;0.95;63.17;100153.81;5060293;28;20528;-50
2024/02/29 03:50:45;;;;;;;7.00;2.08;;;;;;;0.96;63.57;100156.41;5027532;28;20045;-51
2024/02/29 03:53:12;;;;;;;11.95;3.00;;;;;;;0.94;63.28;100150.41;5028509;28;20505;-50
2024/02/29 03:55:38;;;;;;;11.65;2.80;;;;;;;0.91;63.29;100150.38;5028730;28;20056;-53
2024/02/29 03:58:04;;;;;;;8.23;2.47;;;;;;;0.89;63.39;100149.47;5010603;28;20052;-51
2024/02/29 04:00:30;;;;;;;8.35;3.00;;;;;;;0.67;63.34;100107.44;5028106;28;20075;-51
2024/02/29 04:02:56;;;;;;;6.50;2.75;;;;;;;0.84;63.46;100146.88;5026793;28;20045;-56
2024/02/29 04:05:24;;;;;;;5.38;2.70;;;;;;;0.87;63.65;100142.63;5026741;28;20057;-49
2024/02/29 04:07:50;;;;;;;7.68;3.00;;;;;;;0.56;63.87;100103.88;5026315;28;20033;-50
2024/02/29 04:10:16;;;;;;;10.38;3.15;;;;;;;0.82;63.77;100150.25;5010208;28;20501;-51
2024/02/29 04:12:43;;;;;;;8.40;3.63;;;;;;;0.82;63.69;100146.00;5026345;28;20048;-49
2024/02/29 04:15:10;;;;;;;8.05;2.92;;;;;;;0.75;63.62;100130.53;5027964;28;20053;-48
2024/02/29 04:17:36;;;;;;;8.68;3.28;;;;;;;0.89;63.77;100139.25;5008603;28;20034;-51
2024/02/29 04:20:02;;;;;;;13.00;4.30;;;;;;;0.89;63.44;100131.56;5008127;28;20054;-52
2024/02/29 04:22:30;;;;;;;10.57;3.47;;;;;;;0.89;63.70;100130.72;5058088;28;20068;-54
2024/02/29 04:24:56;;;;;;;8.93;3.10;;;;;;;0.90;63.80;100128.16;5059676;28;20141;-54
2024/02/29 04:27:22;;;;;;;11.27;3.67;;;;;;;0.70;63.87;100097.22;5027778;28;20124;-51
2024/02/29 04:29:48;;;;;;;7.13;2.95;;;;;;;0.88;63.62;100127.31;5027635;28;20091;-51
2024/02/29 04:32:14;;;;;;;9.45;3.10;;;;;;;0.70;63.68;100096.38;5025425;28;20076;-55
2024/02/29 04:34:40;;;;;;;9.48;3.20;;;;;;;0.96;63.49;100135.06;5026540;28;20127;-50
2024/02/29 04:37:06;;;;;;;5.68;2.65;;;;;;;0.96;63.33;100141.03;5027760;28;20048;-53
2024/02/29 04:39:32;;;;;;;4.88;2.53;;;;;;;0.95;63.63;100147.00;5026742;28;20045;-51
2024/02/29 04:41:58;;;;;;;6.57;2.70;;;;;;;0.94;63.35;100150.41;5024873;28;20511;-50
2024/02/29 04:44:24;;;;;;;6.85;2.60;;;;;;;1.01;63.18;100152.19;5008167;28;20152;-50
2024/02/29 04:46:50;;;;;;;3.92;2.67;;;;;;;1.03;63.30;100145.41;5007784;28;20044;-55
2024/02/29 04:49:16;;;;;;;10.70;3.40;;;;;;;1.07;63.06;100152.25;5007250;28;20091;-50
2024/02/29 04:51:42;;;;;;;7.38;3.08;;;;;;;1.02;63.51;100153.06;5010552;28;20044;-55
2024/02/29 04:54:08;;;;;;;5.05;3.00;;;;;;;1.08;63.31;100151.44;5027160;28;20063;-56
2024/02/29 04:56:35;;;;;;;9.55;2.95;;;;;;;0.92;63.24;100116.25;5009282;28;20045;-50
2024/02/29 04:59:01;;;;;;;6.53;3.40;;;;;;;1.29;62.78;100155.91;5027063;28;20513;-52
2024/02/29 05:01:27;;;;;;;8.52;3.22;;;;;;;1.34;62.33;100145.72;5008987;28;20059;-55
2024/02/29 05:03:53;;;;;;;9.20;2.88;;;;;;;1.30;62.76;100149.97;5026502;28;20339;-58
2024/02/29 05:06:19;;;;;;;10.00;2.60;;;;;;;1.22;62.73;100151.56;5058552;28;20049;-54
2024/02/29 05:08:45;;;;;;;6.30;2.72;;;;;;;1.11;62.33;100123.28;5024059;28;20057;-53
2024/02/29 05:11:11;;;;;;;7.28;2.75;;;;;;;1.32;62.19;100157.63;5008547;28;20033;-52
2024/02/29 05:13:37;;;;;;;8.07;3.55;;;;;;;1.34;62.12;100153.41;5026454;28;20045;-53
2024/02/29 05:16:04;;;;;;;11.52;2.28;;;;;;;1.37;62.17;100156.84;5026605;28;20120;-52
2024/02/29 05:18:30;;;;;;;9.00;3.15;;;;;;;1.39;62.32;100156.88;5025346;28;20631;-52
2024/02/29 05:20:56;;;;;;;10.85;3.65;;;;;;;1.42;61.98;100162.88;5026576;28;20591;-51
2024/02/29 05:23:23;;;;;;;9.25;3.40;;;;;;;1.48;62.14;100157.81;5025714;28;20044;-53
2024/02/29 05:25:49;;;;;;;7.05;3.15;;;;;;;1.52;61.81;100164.69;5026272;28;20045;-52
2024/02/29 05:28:15;;;;;;;3.30;2.05;;;;;;;1.45;61.59;100144.13;5024862;28;20044;-52
2024/02/29 05:30:45;;;;;;;4.78;2.35;;;;;;;1.35;61.44;100125.25;5024912;28;20561;-50
2024/02/29 05:33:11;;;;;;;6.95;2.83;;;;;;;1.57;61.58;100157.06;5026720;28;20423;-51
2024/02/29 05:35:37;;;;;;;7.05;3.10;;;;;;;1.69;61.18;100157.16;5025368;28;20064;-52
2024/02/29 05:38:07;;;;;;;11.18;3.00;;;;;;;1.73;60.86;100160.63;5026005;28;20366;-51
2024/02/29 05:40:33;;;;;;;10.20;3.75;;;;;;;1.76;60.75;100160.63;5025349;28;20049;-50
2024/02/29 05:42:59;;;;;;;7.40;3.78;;;;;;;1.81;61.16;100159.84;5041569;28;20048;-53
2024/02/29 05:45:25;;;;;;;7.75;4.00;;;;;;;1.80;60.64;100152.97;5041848;28;20041;-54
2024/02/29 05:47:51;;;;;;;10.82;4.28;;;;;;;2.00;60.81;100156.56;5025885;28;20033;-55
2024/02/29 05:50:17;;;;;;;6.80;3.97;;;;;;;2.06;60.52;100150.63;5025878;28;20077;-55
2024/02/29 05:52:43;;;;;;;9.95;4.03;;;;;;;2.20;60.20;100154.13;5024086;28;20041;-54
2024/02/29 05:55:10;;;;;;;7.95;3.92;;;;;;;2.22;59.78;100149.88;5025494;28;20159;-52
2024/02/29 05:57:36;;;;;;;9.68;3.42;;;;;;;2.26;59.77;100150.75;5041246;28;20057;-51
2024/02/29 06:00:03;;;;;;;9.80;3.70;;;;;;;2.25;59.58;100147.31;5024254;28;20099;-56
2024/02/29 06:02:37;;;;;;;6.68;3.53;;;;;;;1.90;59.52;100095.81;5025586;28;20091;-50
2024/02/29 06:05:04;;;;;;;7.47;3.38;;;;;;;2.20;59.52;100146.44;5008215;28;20041;-55
2024/02/29 06:07:30;;;;;;;7.60;3.22;;;;;;;2.33;59.30;100153.38;5024430;28;20041;-53
2024/02/29 06:09:56;;;;;;;5.68;2.60;;;;;;;2.23;59.19;100150.75;5040387;28;20872;-51
2024/02/29 06:12:22;;;;;;;9.52;3.35;;;;;;;2.17;59.09;100130.19;5026614;28;20099;-50
2024/02/29 06:14:48;;;;;;;6.38;2.78;;;;;;;2.46;59.12;100160.28;5041283;28;20064;-55
2024/02/29 06:17:16;;;;;;;8.57;2.58;;;;;;;2.14;58.73;100123.34;5024891;28;20045;-55
2024/02/29 06:19:42;;;;;;;9.02;3.03;;;;;;;2.34;59.15;100152.53;5025752;28;20041;-50
2024/02/29 06:22:10;;;;;;;9.00;3.35;;;;;;;2.56;58.86;100156.91;4992624;28;20139;-50
2024/02/29 06:24:36;;;;;;;6.90;2.38;;;;;;;2.62;58.34;100156.09;5025320;28;20153;-55
2024/02/29 06:27:02;;;;;;;9.88;3.58;;;;;;;2.56;58.32;100148.38;5023872;28;20049;-49
2024/02/29 06:29:28;;;;;;;6.55;2.67;;;;;;;2.58;58.53;100146.66;5007563;28;20045;-54
2024/02/29 06:31:54;;;;;;;6.25;2.88;;;;;;;2.53;58.71;100140.66;5024438;28;20041;-51
2024/02/29 06:34:20;;;;;;;6.68;3.42;;;;;;;2.36;58.65;100086.69;5057266;28;20045;-50
2024/02/29 06:36:46;;;;;;;5.72;2.53;;;;;;;2.66;57.91;100097.94;5025454;28;20378;-54
2024/02/29 06:39:12;;;;;;;12.88;4.07;;;;;;;2.86;57.84;100133.13;5007311;28;20210;-56
2024/02/29 06:41:42;;;;;;;7.95;3.40;;;;;;;2.95;57.69;100137.41;5024456;28;20053;-52
2024/02/29 06:44:08;;;;;;;7.32;3.67;;;;;;;3.06;57.66;100133.19;5026084;28;20545;-50
2024/02/29 06:46:34;;;;;;;8.13;2.53;;;;;;;3.28;57.03;100137.53;5008228;28;20127;-50
2024/02/29 06:49:01;;;;;;;9.95;3.50;;;;;;;3.38;56.93;100139.25;5023493;28;20041;-54
2024/02/29 06:51:30;;;;;;;8.20;3.08;;;;;;;3.57;56.62;100145.28;4991312;28;20045;-51
2024/02/29 06:53:56;;;;;;;10.63;3.20;;;;;;;3.66;56.34;100150.44;5024999;28;20041;-53
2024/02/29 06:56:22;;;;;;;8.45;3.00;;;;;;;3.80;55.59;100145.31;5023303;28;20038;-51
2024/02/29 06:58:49;;;;;;;4.05;2.13;;;;;;;4.05;55.34;100151.28;5025054;28;20424;-52
2024/02/29 07:01:15;;;;;;;11.80;2.92;;;;;;;4.17;54.42;100154.72;5007120;28;20038;-55
2024/02/29 07:03:41;;;;;;;6.22;2.25;;;;;;;4.44;54.02;100152.97;5048359;28;20510;-58
2024/02/29 07:06:07;;;;;;;6.75;2.85;;;;;;;4.58;53.69;100138.34;5002825;28;20048;-55
2024/02/29 07:08:36;;;;;;;7.25;2.58;;;;;;;4.96;52.69;100153.66;5024820;28;20033;-55
2024/02/29 07:11:03;;;;;;;5.20;1.77;;;;;;;4.87;52.30;100133.94;5025461;28;20045;-52
2024/02/29 07:13:30;;;;;;;8.18;2.15;;;;;;;4.76;52.38;100148.59;5009497;28;20128;-48
2024/02/29 07:15:56;;;;;;;7.40;3.00;;;;;;;4.81;52.66;100152.00;5028578;28;20538;-55
2024/02/29 07:18:23;;;;;;;7.20;3.25;;;;;;;4.92;52.33;100155.38;5028669;28;20123;-50
2024/02/29 07:20:50;;;;;;;6.38;3.17;;;;;;;4.80;51.95;100152.00;5043639;28;20583;-51
2024/02/29 07:23:16;;;;;;;8.52;2.22;;;;;;;4.83;51.72;100144.25;5010972;28;20147;-55
2024/02/29 07:25:42;;;;;;;9.95;3.15;;;;;;;4.59;52.60;100143.50;5010789;28;20045;-51
2024/02/29 07:28:08;;;;;;;10.02;2.95;;;;;;;4.79;52.30;100151.16;5007729;28;20044;-50
2024/02/29 07:30:34;;;;;;;6.82;3.40;;;;;;;5.08;52.19;100146.72;5020001;28;20037;-53
2024/02/29 07:33:04;;;;;;;7.63;3.50;;;;;;;5.31;52.10;100140.59;5026963;28;20048;-53
2024/02/29 07:35:31;;;;;;;7.15;3.00;;;;;;;5.34;52.00;100145.75;5015660;28;20044;-51
2024/02/29 07:37:57;;;;;;;11.50;3.65;;;;;;;5.30;51.45;100139.72;5020615;28;20104;-53
2024/02/29 07:40:23;;;;;;;9.95;3.88;;;;;;;5.46;51.43;100143.06;5028312;28;20136;-51
2024/02/29 07:42:49;;;;;;;12.48;3.92;;;;;;;5.20;50.96;100075.34;5028537;28;20091;-52
2024/02/29 07:45:15;;;;;;;10.00;3.20;;;;;;;5.78;50.75;100142.84;5027403;28;20509;-49
2024/02/29 07:47:41;;;;;;;8.80;3.15;;;;;;;5.38;50.29;100109.63;5010486;28;20041;-55
2024/02/29 07:50:09;;;;;;;8.35;3.40;;;;;;;5.20;50.95;100112.28;5026013;28;20582;-51
2024/02/29 07:52:37;;;;;;;11.57;4.00;;;;;;;5.28;50.98;100131.16;5026905;28;20040;-54
2024/02/29 07:55:06;;;;;;;7.60;3.08;;;;;;;5.07;51.41;100133.88;5023918;28;20063;-52
2024/02/29 07:57:32;;;;;;;;;;;;;;;5.04;51.47;100146.75;5027650;28;20128;-52
2024/02/29 07:59:58;;;;;;;8.20;3.35;;;;;;;5.09;51.00;100139.84;5027911;28;20102;-53
2024/02/29 08:02:24;;;;;;;7.63;3.25;;;;;;;4.96;51.61;100141.66;5026618;28;20084;-52
2024/02/29 08:04:50;;;;;;;10.32;3.38;;;;;;;4.78;52.24;100136.53;5026797;28;20065;-51
2024/02/29 08:07:16;;;;;;;8.20;3.28;;;;;;;4.74;52.50;100141.72;5009783;28;20049;-51
2024/02/29 08:09:42;;;;;;;11.43;4.15;;;;;;;4.76;52.04;100137.44;5042129;28;20094;-49
2024/02/29 08:12:08;;;;;;;8.80;3.30;;;;;;;4.89;51.76;100144.22;5026714;28;20495;-53
2024/02/29 08:14:34;;;;;;;9.75;3.55;;;;;;;4.85;51.91;100143.41;5027773;28;20040;-52
2024/02/29 08:17:00;;;;;;;6.65;3.05;;;;;;;4.93;51.85;100141.63;5009851;28;20044;-51
2024/02/29 08:19:26;;;;;;;12.75;3.53;;;;;;;5.21;51.32;100111.44;5027135;28;20045;-50
2024/02/29 08:21:52;;;;;;;8.48;3.55;;;;;;;5.48;50.91;100141.34;4988035;28;20042;-52
2024/02/29 08:24:18;;;;;;;7.93;3.63;;;;;;;5.62;50.91;100133.50;5026749;28;20041;-52
2024/02/29 08:26:44;;;;;;;12.15;3.80;;;;;;;5.43;50.88;100113.03;5025419;28;20471;-48
2024/02/29 08:29:14;;;;;;;7.13;3.55;;;;;;;5.79;50.16;100134.25;5027059;28;20043;-49
2024/02/29 08:31:41;;;;;;;9.38;3.38;;;;;;;5.87;50.31;100132.47;5041641;28;20037;-51
2024/02/29 08:34:07;;;;;;;8.82;3.20;;;;;;;5.72;50.11;100142.88;5026192;28;20045;-52
2024/02/29 08:36:33;;;;;;;7.88;3.60;;;;;;;5.59;50.82;100143.88;5017092;28;20068;-52
2024/02/29 08:38:59;;;;;;;10.43;3.80;;;;;;;5.34;51.26;100119.97;5025662;28;20777;-50
2024/02/29 08:41:26;;;;;;;7.00;3.42;;;;;;;5.33;50.84;100103.63;5025010;28;20045;-52
2024/02/29 08:43:56;;;;;;;10.57;3.92;;;;;;;5.65;50.67;100149.84;5024944;28;20120;-53
2024/02/29 08:46:22;;;;;;;10.85;3.90;;;;;;;5.81;50.98;100140.28;5025843;28;20057;-54
2024/02/29 08:48:48;;;;;;;7.60;4.00;;;;;;;5.85;50.05;100118.72;5009460;28;20091;-53
2024/02/29 08:51:14;;;;;;;8.73;3.42;;;;;;;5.95;50.04;100092.00;5022456;28;20045;-52
2024/02/29 08:53:41;;;;;;;11.00;3.80;;;;;;;6.23;49.61;100127.00;5001288;28;20045;-52
2024/02/29 08:56:08;;;;;;;12.40;3.92;;;;;;;6.29;49.18;100124.34;5025072;28;20456;-55
2024/02/29 08:58:34;;;;;;;9.35;3.55;;;;;;;6.33;49.24;100151.03;5009075;28;20037;-53
2024/02/29 09:01:03;;;;;;;8.25;3.75;;;;;;;6.01;49.64;100125.50;5004520;28;20072;-50
2024/02/29 09:03:30;;;;;;;8.48;3.78;;;;;;;6.11;49.43;100149.50;5009008;28;20049;-51
2024/02/29 09:05:56;;;;;;;10.70;3.60;;;;;;;5.81;49.88;100114.47;5026865;28;20045;-51
2024/02/29 09:08:22;;;;;;;10.80;3.92;;;;;;;5.79;49.76;100144.56;5025780;28;20033;-52
2024/02/29 09:10:49;;;;;;;7.63;3.60;;;;;;;5.78;50.37;100137.69;5008315;28;20046;-53
2024/02/29 09:13:15;;;;;;;11.73;4.25;;;;;;;5.90;50.17;100150.53;5026884;28;20044;-54
2024/02/29 09:15:41;;;;;;;7.65;3.08;;;;;;;6.06;49.71;100156.44;5025725;28;20537;-50
2024/02/29 09:18:08;;;;;;;7.88;3.83;;;;;;;5.94;49.64;100149.63;5025630;28;20045;-51
2024/02/29 09:20:37;;;;;;;7.47;3.15;;;;;;;5.64;49.86;100095.69;5026519;28;20045;-53
2024/02/29 09:23:04;;;;;;;7.55;3.78;;;;;;;5.70;50.38;100136.91;5024764;28;20060;-52
2024/02/29 09:25:30;;;;;;;7.60;3.38;;;;;;;5.87;50.72;100146.25;5026508;28;20536;-52
2024/02/29 09:27:59;;;;;;;6.22;2.33;;;;;;;6.16;49.71;100137.41;5025593;28;20053;-51
2024/02/29 09:30:26;;;;;;;12.23;3.70;;;;;;;6.22;49.97;100139.94;5025242;28;20041;-49
2024/02/29 09:32:53;;;;;;;8.25;3.15;;;;;;;6.44;49.48;100135.41;4991856;28;20044;-51
2024/02/29 09:35:20;;;;;;;8.93;3.95;;;;;;;6.42;49.41;100138.00;5026847;28;20052;-47
2024/02/29 09:37:47;;;;;;;11.45;3.42;;;;;;;6.50;49.43;100141.34;5026620;28;20052;-51
2024/02/29 09:40:15;;;;;;;8.90;3.35;;;;;;;6.52;49.09;100138.75;5041477;28;20068;-50
2024/02/29 09:42:44;;;;;;;11.07;3.72;;;;;;;6.57;48.99;100150.75;5022883;28;20096;-49
2024/02/29 09:45:13;;;;;;;9.05;3.45;;;;;;;6.66;48.65;100144.63;5024640;28;20041;-48
2024/02/29 09:47:40;;;;;;;9.57;4.10;;;;;;;6.44;48.75;100109.59;5019526;28;20033;-47
2024/02/29 09:50:11;;;;;;;8.45;3.53;;;;;;;6.99;48.17;100139.06;5024240;28;20543;-47
2024/02/29 09:52:41;;;;;;;8.02;3.22;;;;;;;7.25;47.79;100143.91;5010422;28;20052;-49
2024/02/29 09:55:13;;;;;;;10.23;4.22;;;;;;;7.38;47.83;100144.59;5024700;28;20425;-50
2024/02/29 09:57:40;;;;;;;10.02;3.60;;;;;;;7.72;46.87;100147.53;5023561;28;20069;-52
2024/02/29 10:00:10;;;;;;;7.47;3.65;;;;;;;7.84;46.35;100145.63;4991618;28;20041;-49
2024/02/29 10:02:42;;;;;;;6.80;3.20;;;;;;;7.84;46.33;100144.75;5007105;28;20051;-56
2024/02/29 10:05:11;;;;;;;11.77;3.83;;;;;;;7.77;46.19;100138.81;5008129;28;20045;-55
2024/02/29 10:07:47;;;;;;;5.88;3.55;;;;;;;7.43;46.15;100109.19;5023995;28;20131;-53
2024/02/29 10:10:16;;;;;;;11.25;4.25;;;;;;;7.47;46.35;100109.09;5016617;28;20088;-54
2024/02/29 10:12:45;;;;;;;8.63;3.47;;;;;;;7.75;46.28;100140.56;5034523;28;20093;-56
2024/02/29 10:15:11;;;;;;;8.63;4.03;;;;;;;7.61;46.27;100145.09;5002169;28;20126;-53
2024/02/29 10:17:38;;;;;;;10.95;4.13;;;;;;;7.61;46.47;100145.09;5024218;28;20095;-51
2024/02/29 10:20:16;;;;;;;8.80;3.47;;;;;;;7.99;46.07;100142.78;5024503;28;20060;-53
2024/02/29 10:22:42;;;;;;;9.25;4.00;;;;;;;8.06;46.00;100146.09;5008349;28;20077;-54
2024/02/29 10:25:13;;;;;;;9.38;3.50;;;;;;;8.12;45.49;100148.59;5025680;28;20049;-54
2024/02/29 10:27:39;;;;;;;11.55;4.57;;;;;;;8.06;45.54;100144.38;5024074;28;20128;-55
2024/02/29 10:30:16;;;;;;;12.48;4.13;;;;;;;8.20;45.44;100153.66;5040128;28;20549;-54
2024/02/29 10:32:44;;;;;;;6.25;3.78;;;;;;;8.06;45.58;100140.91;5023359;28;20037;-50
2024/02/29 10:35:21;;;;;;;11.45;4.28;;;;;;;7.97;45.84;100134.16;5025435;28;20457;-55
2024/02/29 10:37:48;;;;;;;11.23;4.68;;;;;;;7.83;46.05;100143.06;5040595;28;20080;-54
2024/02/29 10:40:15;;;;;;;9.85;4.72;;;;;;;7.78;45.93;100134.50;5007204;28;20068;-51
2024/02/29 10:42:42;;;;;;;17.75;4.20;;;;;;;7.51;46.22;100107.31;5006262;28;20045;-49
2024/02/29 10:45:17;;;;;;;13.75;3.88;;;;;;;7.50;46.05;100093.53;5025429;28;20037;-54
2024/02/29 10:48:07;;;;;;;9.60;4.10;;;;;;;7.36;46.35;100115.31;5024650;28;20410;-50
2024/02/29 10:51:02;;;;;;;9.43;4.55;;;;;;;7.34;46.73;100133.41;4995080;28;20048;-54
2024/02/29 10:53:49;;;;;;;8.07;4.50;;;;;;;7.62;46.52;100141.66;5042746;28;20048;-53
2024/02/29 10:56:27;;;;;;;7.60;4.25;;;;;;;7.75;46.26;100147.47;5010561;28;20045;-53
2024/02/29 10:59:06;;;;;;;8.07;3.20;;;;;;;7.81;46.03;100139.63;5007320;28;20037;-50
2024/02/29 11:01:38;;;;;;;7.80;3.50;;;;;;;7.93;45.68;100140.28;5012066;28;20562;-53
2024/02/29 11:04:05;;;;;;;7.97;3.42;;;;;;;8.06;45.29;100162.50;5028635;28;20071;-53
2024/02/29 11:06:35;;;;;;;9.13;4.03;;;;;;;8.19;45.20;100126.03;5027852;28;20048;-52
2024/02/29 11:09:03;;;;;;;11.38;4.20;;;;;;;9.11;43.89;100150.19;5027459;28;20040;-54
2024/02/29 11:11:29;;;;;;;8.85;3.22;;;;;;;9.95;43.04;100150.88;4971052;28;20052;-53
2024/02/29 11:14:05;;;;;;;8.85;3.72;;;;;;;10.39;41.62;100136.81;5007533;28;20088;-52
2024/02/29 11:16:55;;;;;;;8.55;3.47;;;;;;;10.61;41.11;100140.53;5027423;28;20080;-51
2024/02/29 11:19:21;;;;;;;10.77;3.55;;;;;;;10.73;40.48;100124.59;5025718;28;20048;-51
2024/02/29 11:21:47;;;;;;;8.13;3.75;;;;;;;10.93;39.97;100105.84;5021625;28;20037;-53
2024/02/29 11:24:22;;;;;;;6.03;3.40;;;;;;;10.81;39.56;100111.38;5027631;28;20041;-56
2024/02/29 11:26:57;;;;;;;9.70;3.90;;;;;;;10.77;39.37;100117.56;5027181;28;20052;-56
2024/02/29 11:29:27;;;;;;;17.40;3.95;;;;;;;10.98;39.51;100111.75;5027783;28;20033;-57
2024/02/29 11:31:58;;;;;;;12.68;4.50;;;;;;;11.50;39.35;100128.41;5010789;28;20041;-55